Terminal Aerodrome Forecast
Issued by NWS

Home | Current Version | Previous Version | Text Only | Print | Product List | Glossary On
Versions: 1 2 3 4 5 6 7 8 9 10 11 12 13 14 15 16 17 18 19 20 21 22 23 24 25 26 27
000
FTUS41 KGYX 211728
TAFLEB
TAF
KLEB 211728Z 2118/2218 18013G22KT P6SM SCT026
     FM212200 17005KT P6SM OVC050
     FM220300 19004KT 4SM BR OVC015
     FM220600 22006KT 1 1/2SM BR OVC003
     FM220800 21008KT 1/2SM FG OVC001
     FM221400 27010KT P6SM OVC050=

USA.gov is the U.S. government's official web portal to all federal, state and local government web resources and services.